sensor_id;sensor_type;location;lat;lon;timestamp;P1;durP1;ratioP1;P2;durP2;ratioP2
18320;SDS011;54904;54.350;18.664;2022-12-04T00:00:01;21.87;;;10.50;;
18320;SDS011;54904;54.350;18.664;2022-12-04T00:02:29;21.10;;;10.00;;
18320;SDS011;54904;54.350;18.664;2022-12-04T00:04:56;19.83;;;9.00;;
18320;SDS011;54904;54.350;18.664;2022-12-04T00:07:23;17.90;;;9.03;;
18320;SDS011;54904;54.350;18.664;2022-12-04T00:09:50;21.67;;;9.83;;
18320;SDS011;54904;54.350;18.664;2022-12-04T00:12:19;21.80;;;9.63;;
18320;SDS011;54904;54.350;18.664;2022-12-04T00:14:46;19.47;;;8.73;;
18320;SDS011;54904;54.350;18.664;2022-12-04T00:17:13;19.03;;;8.43;;
18320;SDS011;54904;54.350;18.664;2022-12-04T00:19:40;25.60;;;10.90;;
18320;SDS011;54904;54.350;18.664;2022-12-04T00:22:07;22.60;;;9.83;;
18320;SDS011;54904;54.350;18.664;2022-12-04T00:24:34;19.10;;;8.77;;
18320;SDS011;54904;54.350;18.664;2022-12-04T00:27:01;16.43;;;8.40;;
18320;SDS011;54904;54.350;18.664;2022-12-04T00:29:29;19.93;;;9.27;;
18320;SDS011;54904;54.350;18.664;2022-12-04T00:31:56;18.53;;;8.83;;
18320;SDS011;54904;54.350;18.664;2022-12-04T00:34:23;22.37;;;11.03;;
18320;SDS011;54904;54.350;18.664;2022-12-04T00:36:50;30.53;;;13.67;;
18320;SDS011;54904;54.350;18.664;2022-12-04T00:39:17;37.50;;;16.10;;
18320;SDS011;54904;54.350;18.664;2022-12-04T00:41:44;32.23;;;15.37;;
18320;SDS011;54904;54.350;18.664;2022-12-04T00:44:11;31.87;;;14.10;;
18320;SDS011;54904;54.350;18.664;2022-12-04T00:46:40;28.47;;;13.03;;
18320;SDS011;54904;54.350;18.664;2022-12-04T00:49:07;23.43;;;11.43;;
18320;SDS011;54904;54.350;18.664;2022-12-04T00:51:34;21.57;;;10.77;;
18320;SDS011;54904;54.350;18.664;2022-12-04T00:54:01;21.00;;;9.90;;
18320;SDS011;54904;54.350;18.664;2022-12-04T00:56:28;30.57;;;14.27;;
18320;SDS011;54904;54.350;18.664;2022-12-04T00:58:55;31.37;;;13.93;;
18320;SDS011;54904;54.350;18.664;2022-12-04T01:01:24;31.60;;;13.03;;
18320;SDS011;54904;54.350;18.664;2022-12-04T01:03:54;31.27;;;14.30;;
18320;SDS011;54904;54.350;18.664;2022-12-04T01:06:21;29.73;;;12.70;;
18320;SDS011;54904;54.350;18.664;2022-12-04T01:08:50;23.37;;;11.80;;
18320;SDS011;54904;54.350;18.664;2022-12-04T01:11:18;24.30;;;11.53;;
18320;SDS011;54904;54.350;18.664;2022-12-04T01:13:46;18.73;;;9.83;;
18320;SDS011;54904;54.350;18.664;2022-12-04T01:16:14;22.50;;;10.33;;
18320;SDS011;54904;54.350;18.664;2022-12-04T01:18:42;18.30;;;8.90;;
18320;SDS011;54904;54.350;18.664;2022-12-04T01:21:11;18.40;;;9.10;;
18320;SDS011;54904;54.350;18.664;2022-12-04T01:23:38;33.43;;;16.00;;
18320;SDS011;54904;54.350;18.664;2022-12-04T01:26:05;38.43;;;16.87;;
18320;SDS011;54904;54.350;18.664;2022-12-04T01:28:32;35.57;;;15.97;;
18320;SDS011;54904;54.350;18.664;2022-12-04T01:31:00;42.50;;;18.40;;
18320;SDS011;54904;54.350;18.664;2022-12-04T01:33:29;31.77;;;15.30;;
18320;SDS011;54904;54.350;18.664;2022-12-04T01:35:57;31.37;;;14.50;;
18320;SDS011;54904;54.350;18.664;2022-12-04T01:38:27;33.80;;;14.37;;
18320;SDS011;54904;54.350;18.664;2022-12-04T01:40:54;22.40;;;10.93;;
18320;SDS011;54904;54.350;18.664;2022-12-04T01:43:22;28.53;;;13.97;;
18320;SDS011;54904;54.350;18.664;2022-12-04T01:45:51;30.17;;;13.93;;
18320;SDS011;54904;54.350;18.664;2022-12-04T01:48:20;24.20;;;12.23;;
18320;SDS011;54904;54.350;18.664;2022-12-04T01:50:52;33.83;;;15.07;;
18320;SDS011;54904;54.350;18.664;2022-12-04T01:53:23;31.43;;;14.87;;
18320;SDS011;54904;54.350;18.664;2022-12-04T01:55:53;25.17;;;12.50;;
18320;SDS011;54904;54.350;18.664;2022-12-04T01:58:23;23.27;;;12.27;;
18320;SDS011;54904;54.350;18.664;2022-12-04T02:00:57;32.00;;;14.13;;
18320;SDS011;54904;54.350;18.664;2022-12-04T02:03:27;26.13;;;12.00;;
18320;SDS011;54904;54.350;18.664;2022-12-04T02:05:54;22.30;;;10.33;;
18320;SDS011;54904;54.350;18.664;2022-12-04T02:08:22;24.20;;;10.60;;
18320;SDS011;54904;54.350;18.664;2022-12-04T02:10:51;18.27;;;9.27;;
18320;SDS011;54904;54.350;18.664;2022-12-04T02:13:29;20.10;;;9.37;;
18320;SDS011;54904;54.350;18.664;2022-12-04T02:16:04;20.07;;;9.53;;
18320;SDS011;54904;54.350;18.664;2022-12-04T02:18:39;20.13;;;8.80;;
18320;SDS011;54904;54.350;18.664;2022-12-04T02:21:17;16.20;;;8.23;;
18320;SDS011;54904;54.350;18.664;2022-12-04T02:23:54;17.93;;;8.10;;
18320;SDS011;54904;54.350;18.664;2022-12-04T02:26:45;17.83;;;8.17;;
18320;SDS011;54904;54.350;18.664;2022-12-04T02:29:19;16.43;;;8.43;;
18320;SDS011;54904;54.350;18.664;2022-12-04T02:31:56;15.07;;;8.30;;
18320;SDS011;54904;54.350;18.664;2022-12-04T02:34:25;18.33;;;8.63;;
18320;SDS011;54904;54.350;18.664;2022-12-04T02:36:58;13.60;;;7.13;;
18320;SDS011;54904;54.350;18.664;2022-12-04T02:39:31;14.30;;;7.93;;
18320;SDS011;54904;54.350;18.664;2022-12-04T02:42:03;15.00;;;8.20;;
18320;SDS011;54904;54.350;18.664;2022-12-04T02:44:40;17.30;;;9.00;;
18320;SDS011;54904;54.350;18.664;2022-12-04T02:47:11;14.37;;;7.90;;
18320;SDS011;54904;54.350;18.664;2022-12-04T02:49:42;18.03;;;8.20;;
18320;SDS011;54904;54.350;18.664;2022-12-04T02:52:12;16.73;;;8.50;;
18320;SDS011;54904;54.350;18.664;2022-12-04T02:54:45;15.67;;;8.57;;
18320;SDS011;54904;54.350;18.664;2022-12-04T02:57:16;22.00;;;10.53;;
18320;SDS011;54904;54.350;18.664;2022-12-04T02:59:48;24.47;;;11.43;;
18320;SDS011;54904;54.350;18.664;2022-12-04T03:02:18;20.73;;;9.43;;
18320;SDS011;54904;54.350;18.664;2022-12-04T03:04:48;19.90;;;9.60;;
18320;SDS011;54904;54.350;18.664;2022-12-04T03:07:17;15.83;;;8.40;;
18320;SDS011;54904;54.350;18.664;2022-12-04T03:09:51;15.63;;;8.07;;
18320;SDS011;54904;54.350;18.664;2022-12-04T03:12:23;14.83;;;8.23;;
18320;SDS011;54904;54.350;18.664;2022-12-04T03:14:56;14.17;;;7.80;;
18320;SDS011;54904;54.350;18.664;2022-12-04T03:17:26;14.50;;;7.37;;
18320;SDS011;54904;54.350;18.664;2022-12-04T03:19:57;15.03;;;7.83;;
18320;SDS011;54904;54.350;18.664;2022-12-04T03:22:28;13.87;;;7.43;;
18320;SDS011;54904;54.350;18.664;2022-12-04T03:24:59;11.27;;;6.80;;
18320;SDS011;54904;54.350;18.664;2022-12-04T03:27:29;16.87;;;8.27;;
18320;SDS011;54904;54.350;18.664;2022-12-04T03:30:06;16.90;;;6.50;;
18320;SDS011;54904;54.350;18.664;2022-12-04T03:32:38;13.00;;;7.10;;
18320;SDS011;54904;54.350;18.664;2022-12-04T03:35:10;16.63;;;8.10;;
18320;SDS011;54904;54.350;18.664;2022-12-04T03:37:42;17.40;;;7.60;;
18320;SDS011;54904;54.350;18.664;2022-12-04T03:40:20;12.07;;;6.90;;
18320;SDS011;54904;54.350;18.664;2022-12-04T03:42:50;22.27;;;9.77;;
18320;SDS011;54904;54.350;18.664;2022-12-04T03:45:25;19.83;;;9.73;;
18320;SDS011;54904;54.350;18.664;2022-12-04T03:47:55;17.20;;;8.47;;
18320;SDS011;54904;54.350;18.664;2022-12-04T03:50:29;20.63;;;8.97;;
18320;SDS011;54904;54.350;18.664;2022-12-04T03:53:03;18.40;;;9.13;;
18320;SDS011;54904;54.350;18.664;2022-12-04T03:55:35;18.67;;;8.60;;
18320;SDS011;54904;54.350;18.664;2022-12-04T03:58:07;15.70;;;7.97;;
18320;SDS011;54904;54.350;18.664;2022-12-04T04:00:40;34.47;;;14.10;;
18320;SDS011;54904;54.350;18.664;2022-12-04T04:03:10;28.17;;;13.30;;
18320;SDS011;54904;54.350;18.664;2022-12-04T04:05:42;25.17;;;11.80;;
18320;SDS011;54904;54.350;18.664;2022-12-04T04:08:13;35.63;;;16.13;;
18320;SDS011;54904;54.350;18.664;2022-12-04T04:10:51;33.97;;;14.10;;
18320;SDS011;54904;54.350;18.664;2022-12-04T04:13:21;26.97;;;12.27;;
18320;SDS011;54904;54.350;18.664;2022-12-04T04:16:10;22.47;;;10.30;;
18320;SDS011;54904;54.350;18.664;2022-12-04T04:18:59;16.10;;;8.60;;
18320;SDS011;54904;54.350;18.664;2022-12-04T04:21:45;19.77;;;8.63;;
18320;SDS011;54904;54.350;18.664;2022-12-04T04:24:36;27.20;;;11.77;;
18320;SDS011;54904;54.350;18.664;2022-12-04T04:27:07;22.80;;;9.97;;
18320;SDS011;54904;54.350;18.664;2022-12-04T04:29:34;18.63;;;9.37;;
18320;SDS011;54904;54.350;18.664;2022-12-04T04:32:05;21.73;;;10.60;;
18320;SDS011;54904;54.350;18.664;2022-12-04T04:34:37;43.57;;;16.70;;
18320;SDS011;54904;54.350;18.664;2022-12-04T04:37:09;30.60;;;13.97;;
18320;SDS011;54904;54.350;18.664;2022-12-04T04:39:46;26.47;;;12.60;;
18320;SDS011;54904;54.350;18.664;2022-12-04T04:42:20;23.77;;;11.60;;
18320;SDS011;54904;54.350;18.664;2022-12-04T04:44:51;39.47;;;17.40;;
18320;SDS011;54904;54.350;18.664;2022-12-04T04:47:25;36.10;;;15.13;;
18320;SDS011;54904;54.350;18.664;2022-12-04T04:49:55;26.63;;;13.17;;
18320;SDS011;54904;54.350;18.664;2022-12-04T04:52:27;23.40;;;11.70;;
18320;SDS011;54904;54.350;18.664;2022-12-04T04:54:55;22.77;;;11.10;;
18320;SDS011;54904;54.350;18.664;2022-12-04T04:57:24;22.07;;;10.23;;
18320;SDS011;54904;54.350;18.664;2022-12-04T04:59:52;15.77;;;8.77;;
18320;SDS011;54904;54.350;18.664;2022-12-04T05:02:19;19.40;;;10.03;;
18320;SDS011;54904;54.350;18.664;2022-12-04T05:04:48;21.90;;;10.30;;
18320;SDS011;54904;54.350;18.664;2022-12-04T05:07:15;29.33;;;13.03;;
18320;SDS011;54904;54.350;18.664;2022-12-04T05:09:43;22.23;;;10.30;;
18320;SDS011;54904;54.350;18.664;2022-12-04T05:12:10;18.37;;;9.80;;
18320;SDS011;54904;54.350;18.664;2022-12-04T05:14:37;17.40;;;8.77;;
18320;SDS011;54904;54.350;18.664;2022-12-04T05:17:04;16.33;;;8.40;;
18320;SDS011;54904;54.350;18.664;2022-12-04T05:19:31;17.27;;;8.67;;
18320;SDS011;54904;54.350;18.664;2022-12-04T05:22:18;18.97;;;9.87;;
18320;SDS011;54904;54.350;18.664;2022-12-04T05:24:45;15.67;;;8.70;;
18320;SDS011;54904;54.350;18.664;2022-12-04T05:27:12;15.97;;;8.20;;
18320;SDS011;54904;54.350;18.664;2022-12-04T05:29:39;19.20;;;8.70;;
18320;SDS011;54904;54.350;18.664;2022-12-04T05:32:06;15.97;;;8.30;;
18320;SDS011;54904;54.350;18.664;2022-12-04T05:34:33;17.63;;;8.50;;
18320;SDS011;54904;54.350;18.664;2022-12-04T05:37:00;13.73;;;7.53;;
18320;SDS011;54904;54.350;18.664;2022-12-04T05:39:29;16.23;;;8.40;;
18320;SDS011;54904;54.350;18.664;2022-12-04T05:41:55;17.47;;;8.33;;
18320;SDS011;54904;54.350;18.664;2022-12-04T05:44:22;15.00;;;7.83;;
18320;SDS011;54904;54.350;18.664;2022-12-04T05:46:50;17.10;;;8.37;;
18320;SDS011;54904;54.350;18.664;2022-12-04T05:49:17;22.97;;;10.63;;
18320;SDS011;54904;54.350;18.664;2022-12-04T05:51:43;20.10;;;9.37;;
18320;SDS011;54904;54.350;18.664;2022-12-04T05:54:10;15.50;;;8.20;;
18320;SDS011;54904;54.350;18.664;2022-12-04T05:56:39;18.20;;;9.20;;
18320;SDS011;54904;54.350;18.664;2022-12-04T05:59:06;19.83;;;10.00;;
18320;SDS011;54904;54.350;18.664;2022-12-04T06:01:33;19.13;;;9.83;;
18320;SDS011;54904;54.350;18.664;2022-12-04T06:04:00;32.03;;;14.17;;
18320;SDS011;54904;54.350;18.664;2022-12-04T06:06:27;37.83;;;16.50;;
18320;SDS011;54904;54.350;18.664;2022-12-04T06:08:55;32.70;;;15.57;;
18320;SDS011;54904;54.350;18.664;2022-12-04T06:11:24;35.10;;;15.97;;
18320;SDS011;54904;54.350;18.664;2022-12-04T06:13:54;29.77;;;13.53;;
18320;SDS011;54904;54.350;18.664;2022-12-04T06:16:22;23.57;;;11.23;;
18320;SDS011;54904;54.350;18.664;2022-12-04T06:18:51;20.00;;;10.10;;
18320;SDS011;54904;54.350;18.664;2022-12-04T06:21:20;30.00;;;13.43;;
18320;SDS011;54904;54.350;18.664;2022-12-04T06:23:49;30.50;;;13.47;;
18320;SDS011;54904;54.350;18.664;2022-12-04T06:26:16;23.17;;;11.77;;
18320;SDS011;54904;54.350;18.664;2022-12-04T06:28:44;27.93;;;12.87;;
18320;SDS011;54904;54.350;18.664;2022-12-04T06:31:13;31.07;;;13.70;;
18320;SDS011;54904;54.350;18.664;2022-12-04T06:33:43;26.10;;;12.57;;
18320;SDS011;54904;54.350;18.664;2022-12-04T06:36:10;35.60;;;14.33;;
18320;SDS011;54904;54.350;18.664;2022-12-04T06:38:38;29.70;;;13.47;;
18320;SDS011;54904;54.350;18.664;2022-12-04T06:41:07;34.47;;;15.53;;
18320;SDS011;54904;54.350;18.664;2022-12-04T06:43:36;30.77;;;13.87;;
18320;SDS011;54904;54.350;18.664;2022-12-04T06:46:04;44.90;;;18.13;;
18320;SDS011;54904;54.350;18.664;2022-12-04T06:48:35;48.60;;;19.10;;
18320;SDS011;54904;54.350;18.664;2022-12-04T06:51:03;40.97;;;17.37;;
18320;SDS011;54904;54.350;18.664;2022-12-04T06:53:31;35.83;;;15.80;;
18320;SDS011;54904;54.350;18.664;2022-12-04T06:55:58;29.13;;;13.50;;
18320;SDS011;54904;54.350;18.664;2022-12-04T06:58:27;23.87;;;10.93;;
18320;SDS011;54904;54.350;18.664;2022-12-04T07:00:55;22.77;;;9.80;;
18320;SDS011;54904;54.350;18.664;2022-12-04T07:03:22;18.93;;;9.63;;
18320;SDS011;54904;54.350;18.664;2022-12-04T07:05:52;38.70;;;17.50;;
18320;SDS011;54904;54.350;18.664;2022-12-04T07:08:19;35.80;;;15.87;;
18320;SDS011;54904;54.350;18.664;2022-12-04T07:10:46;39.23;;;17.80;;
18320;SDS011;54904;54.350;18.664;2022-12-04T07:13:13;49.80;;;19.83;;
18320;SDS011;54904;54.350;18.664;2022-12-04T07:15:40;58.33;;;22.10;;
18320;SDS011;54904;54.350;18.664;2022-12-04T07:18:07;50.47;;;21.03;;
18320;SDS011;54904;54.350;18.664;2022-12-04T07:20:34;43.57;;;18.57;;
18320;SDS011;54904;54.350;18.664;2022-12-04T07:23:05;51.63;;;20.30;;
18320;SDS011;54904;54.350;18.664;2022-12-04T07:25:32;56.30;;;21.40;;
18320;SDS011;54904;54.350;18.664;2022-12-04T07:28:04;56.80;;;21.07;;
18320;SDS011;54904;54.350;18.664;2022-12-04T07:30:30;53.80;;;19.60;;
18320;SDS011;54904;54.350;18.664;2022-12-04T07:32:57;54.60;;;19.93;;
18320;SDS011;54904;54.350;18.664;2022-12-04T07:35:24;53.77;;;19.57;;
18320;SDS011;54904;54.350;18.664;2022-12-04T07:37:51;42.60;;;16.13;;
18320;SDS011;54904;54.350;18.664;2022-12-04T07:40:20;37.57;;;14.50;;
18320;SDS011;54904;54.350;18.664;2022-12-04T07:42:47;32.80;;;13.33;;
18320;SDS011;54904;54.350;18.664;2022-12-04T07:45:14;39.97;;;16.20;;
18320;SDS011;54904;54.350;18.664;2022-12-04T07:47:41;46.47;;;19.83;;
18320;SDS011;54904;54.350;18.664;2022-12-04T07:50:08;43.03;;;17.50;;
18320;SDS011;54904;54.350;18.664;2022-12-04T07:52:35;41.83;;;15.83;;
18320;SDS011;54904;54.350;18.664;2022-12-04T07:55:06;37.17;;;15.20;;
18320;SDS011;54904;54.350;18.664;2022-12-04T07:57:34;33.20;;;13.27;;
18320;SDS011;54904;54.350;18.664;2022-12-04T08:00:02;35.40;;;15.17;;
18320;SDS011;54904;54.350;18.664;2022-12-04T08:02:38;37.67;;;15.00;;
18320;SDS011;54904;54.350;18.664;2022-12-04T08:05:05;37.27;;;15.87;;
18320;SDS011;54904;54.350;18.664;2022-12-04T08:07:35;33.83;;;14.07;;
18320;SDS011;54904;54.350;18.664;2022-12-04T08:10:02;45.20;;;18.33;;
18320;SDS011;54904;54.350;18.664;2022-12-04T08:12:32;44.70;;;19.07;;
18320;SDS011;54904;54.350;18.664;2022-12-04T08:15:07;43.30;;;18.53;;
18320;SDS011;54904;54.350;18.664;2022-12-04T08:17:35;30.70;;;14.13;;
18320;SDS011;54904;54.350;18.664;2022-12-04T08:20:05;28.40;;;12.80;;
18320;SDS011;54904;54.350;18.664;2022-12-04T08:22:34;32.13;;;14.40;;
18320;SDS011;54904;54.350;18.664;2022-12-04T08:25:01;32.43;;;15.07;;
18320;SDS011;54904;54.350;18.664;2022-12-04T08:27:28;33.33;;;13.20;;
18320;SDS011;54904;54.350;18.664;2022-12-04T08:29:56;46.07;;;18.33;;
18320;SDS011;54904;54.350;18.664;2022-12-04T08:32:24;40.20;;;16.97;;
18320;SDS011;54904;54.350;18.664;2022-12-04T08:34:51;39.57;;;16.50;;
18320;SDS011;54904;54.350;18.664;2022-12-04T08:37:18;44.77;;;17.97;;
18320;SDS011;54904;54.350;18.664;2022-12-04T08:39:45;40.20;;;16.33;;
18320;SDS011;54904;54.350;18.664;2022-12-04T08:42:12;45.43;;;19.00;;
18320;SDS011;54904;54.350;18.664;2022-12-04T08:44:39;36.17;;;16.13;;
18320;SDS011;54904;54.350;18.664;2022-12-04T08:47:07;32.77;;;14.50;;
18320;SDS011;54904;54.350;18.664;2022-12-04T08:49:34;33.20;;;15.10;;
18320;SDS011;54904;54.350;18.664;2022-12-04T08:52:01;34.30;;;15.00;;
18320;SDS011;54904;54.350;18.664;2022-12-04T08:54:28;41.83;;;17.20;;
18320;SDS011;54904;54.350;18.664;2022-12-04T08:56:55;43.60;;;17.13;;
18320;SDS011;54904;54.350;18.664;2022-12-04T08:59:22;35.20;;;15.17;;
18320;SDS011;54904;54.350;18.664;2022-12-04T09:01:49;27.90;;;13.33;;
18320;SDS011;54904;54.350;18.664;2022-12-04T09:04:18;27.43;;;11.93;;
18320;SDS011;54904;54.350;18.664;2022-12-04T09:06:45;31.70;;;13.03;;
18320;SDS011;54904;54.350;18.664;2022-12-04T09:09:12;29.77;;;12.83;;
18320;SDS011;54904;54.350;18.664;2022-12-04T09:11:39;26.57;;;11.67;;
18320;SDS011;54904;54.350;18.664;2022-12-04T09:14:06;38.00;;;16.10;;
18320;SDS011;54904;54.350;18.664;2022-12-04T09:16:33;43.53;;;18.33;;
18320;SDS011;54904;54.350;18.664;2022-12-04T09:19:00;43.80;;;17.77;;
18320;SDS011;54904;54.350;18.664;2022-12-04T09:21:28;37.67;;;16.03;;
18320;SDS011;54904;54.350;18.664;2022-12-04T09:23:55;36.63;;;16.30;;
18320;SDS011;54904;54.350;18.664;2022-12-04T09:26:24;40.83;;;17.60;;
18320;SDS011;54904;54.350;18.664;2022-12-04T09:28:53;32.40;;;14.90;;
18320;SDS011;54904;54.350;18.664;2022-12-04T09:31:21;39.80;;;16.60;;
18320;SDS011;54904;54.350;18.664;2022-12-04T09:33:49;41.70;;;16.20;;
18320;SDS011;54904;54.350;18.664;2022-12-04T09:36:17;31.20;;;14.00;;
18320;SDS011;54904;54.350;18.664;2022-12-04T09:38:46;32.00;;;13.77;;
18320;SDS011;54904;54.350;18.664;2022-12-04T09:41:18;44.17;;;18.87;;
18320;SDS011;54904;54.350;18.664;2022-12-04T09:43:51;44.23;;;18.93;;
18320;SDS011;54904;54.350;18.664;2022-12-04T09:46:25;47.47;;;18.80;;
18320;SDS011;54904;54.350;18.664;2022-12-04T09:48:55;37.17;;;16.17;;
18320;SDS011;54904;54.350;18.664;2022-12-04T09:51:27;39.23;;;18.23;;
18320;SDS011;54904;54.350;18.664;2022-12-04T09:54:00;41.73;;;17.93;;
18320;SDS011;54904;54.350;18.664;2022-12-04T09:56:30;44.73;;;19.33;;
18320;SDS011;54904;54.350;18.664;2022-12-04T09:58:59;43.00;;;15.73;;
18320;SDS011;54904;54.350;18.664;2022-12-04T10:01:32;34.47;;;15.77;;
18320;SDS011;54904;54.350;18.664;2022-12-04T10:04:10;38.50;;;17.03;;
18320;SDS011;54904;54.350;18.664;2022-12-04T10:06:38;42.33;;;17.17;;
18320;SDS011;54904;54.350;18.664;2022-12-04T10:09:14;42.47;;;17.43;;
18320;SDS011;54904;54.350;18.664;2022-12-04T10:11:48;39.03;;;17.23;;
18320;SDS011;54904;54.350;18.664;2022-12-04T10:14:27;45.27;;;18.00;;
18320;SDS011;54904;54.350;18.664;2022-12-04T10:17:20;47.80;;;19.93;;
18320;SDS011;54904;54.350;18.664;2022-12-04T10:19:58;42.30;;;18.80;;
18320;SDS011;54904;54.350;18.664;2022-12-04T10:22:36;40.07;;;17.73;;
18320;SDS011;54904;54.350;18.664;2022-12-04T10:25:10;36.20;;;16.03;;
18320;SDS011;54904;54.350;18.664;2022-12-04T10:27:41;42.37;;;16.90;;
18320;SDS011;54904;54.350;18.664;2022-12-04T10:30:15;44.60;;;18.03;;
18320;SDS011;54904;54.350;18.664;2022-12-04T10:32:45;42.37;;;17.50;;
18320;SDS011;54904;54.350;18.664;2022-12-04T10:35:16;45.37;;;18.03;;
18320;SDS011;54904;54.350;18.664;2022-12-04T10:37:46;51.43;;;19.87;;
18320;SDS011;54904;54.350;18.664;2022-12-04T10:40:20;49.20;;;18.73;;
18320;SDS011;54904;54.350;18.664;2022-12-04T10:42:51;46.07;;;19.10;;
18320;SDS011;54904;54.350;18.664;2022-12-04T10:45:23;50.67;;;19.03;;
18320;SDS011;54904;54.350;18.664;2022-12-04T10:47:50;45.13;;;18.07;;
18320;SDS011;54904;54.350;18.664;2022-12-04T10:50:20;42.23;;;17.37;;
18320;SDS011;54904;54.350;18.664;2022-12-04T10:52:49;41.07;;;17.77;;
18320;SDS011;54904;54.350;18.664;2022-12-04T10:55:27;46.13;;;20.10;;
18320;SDS011;54904;54.350;18.664;2022-12-04T10:57:56;45.37;;;18.40;;
18320;SDS011;54904;54.350;18.664;2022-12-04T11:00:24;35.17;;;15.07;;
18320;SDS011;54904;54.350;18.664;2022-12-04T11:02:54;26.53;;;12.97;;
18320;SDS011;54904;54.350;18.664;2022-12-04T11:05:25;25.97;;;11.70;;
18320;SDS011;54904;54.350;18.664;2022-12-04T11:07:54;38.97;;;14.30;;
18320;SDS011;54904;54.350;18.664;2022-12-04T11:10:23;28.63;;;13.20;;
18320;SDS011;54904;54.350;18.664;2022-12-04T11:12:55;34.37;;;14.43;;
18320;SDS011;54904;54.350;18.664;2022-12-04T11:15:24;25.63;;;11.77;;
18320;SDS011;54904;54.350;18.664;2022-12-04T11:17:53;32.73;;;14.73;;
18320;SDS011;54904;54.350;18.664;2022-12-04T11:20:21;34.00;;;13.80;;
18320;SDS011;54904;54.350;18.664;2022-12-04T11:22:51;37.30;;;16.10;;
18320;SDS011;54904;54.350;18.664;2022-12-04T11:25:21;34.03;;;14.60;;
18320;SDS011;54904;54.350;18.664;2022-12-04T11:27:52;30.40;;;13.47;;
18320;SDS011;54904;54.350;18.664;2022-12-04T11:30:27;28.63;;;12.93;;
18320;SDS011;54904;54.350;18.664;2022-12-04T11:32:59;32.63;;;13.60;;
18320;SDS011;54904;54.350;18.664;2022-12-04T11:35:27;28.27;;;12.03;;
18320;SDS011;54904;54.350;18.664;2022-12-04T11:37:55;33.00;;;15.00;;
18320;SDS011;54904;54.350;18.664;2022-12-04T11:40:26;27.17;;;11.73;;
18320;SDS011;54904;54.350;18.664;2022-12-04T11:43:02;28.50;;;12.73;;
18320;SDS011;54904;54.350;18.664;2022-12-04T11:45:33;30.90;;;13.53;;
18320;SDS011;54904;54.350;18.664;2022-12-04T11:48:00;28.73;;;11.87;;
18320;SDS011;54904;54.350;18.664;2022-12-04T11:50:30;40.07;;;15.37;;
18320;SDS011;54904;54.350;18.664;2022-12-04T11:53:12;32.80;;;14.30;;
18320;SDS011;54904;54.350;18.664;2022-12-04T11:55:45;39.83;;;15.70;;
18320;SDS011;54904;54.350;18.664;2022-12-04T12:01:19;39.30;;;15.63;;
18320;SDS011;54904;54.350;18.664;2022-12-04T12:04:09;36.70;;;15.20;;
18320;SDS011;54904;54.350;18.664;2022-12-04T12:06:56;39.37;;;14.83;;
18320;SDS011;54904;54.350;18.664;2022-12-04T12:09:33;42.77;;;16.13;;
18320;SDS011;54904;54.350;18.664;2022-12-04T12:12:09;39.17;;;15.77;;
18320;SDS011;54904;54.350;18.664;2022-12-04T12:14:42;34.67;;;15.03;;
18320;SDS011;54904;54.350;18.664;2022-12-04T12:17:21;35.67;;;14.27;;
18320;SDS011;54904;54.350;18.664;2022-12-04T12:20:00;34.53;;;13.97;;
18320;SDS011;54904;54.350;18.664;2022-12-04T12:22:39;34.63;;;15.20;;
18320;SDS011;54904;54.350;18.664;2022-12-04T12:25:30;34.83;;;14.27;;
18320;SDS011;54904;54.350;18.664;2022-12-04T12:28:04;42.70;;;16.17;;
18320;SDS011;54904;54.350;18.664;2022-12-04T12:30:46;39.53;;;16.17;;
18320;SDS011;54904;54.350;18.664;2022-12-04T12:33:23;46.40;;;17.80;;
18320;SDS011;54904;54.350;18.664;2022-12-04T12:35:56;41.00;;;15.60;;
18320;SDS011;54904;54.350;18.664;2022-12-04T12:38:30;38.10;;;14.67;;
18320;SDS011;54904;54.350;18.664;2022-12-04T12:41:00;37.00;;;16.00;;
18320;SDS011;54904;54.350;18.664;2022-12-04T12:43:31;39.90;;;16.10;;
18320;SDS011;54904;54.350;18.664;2022-12-04T12:46:03;39.73;;;15.27;;
18320;SDS011;54904;54.350;18.664;2022-12-04T12:48:36;39.93;;;16.33;;
18320;SDS011;54904;54.350;18.664;2022-12-04T12:51:13;35.07;;;15.40;;
18320;SDS011;54904;54.350;18.664;2022-12-04T12:53:49;34.87;;;14.40;;
18320;SDS011;54904;54.350;18.664;2022-12-04T12:56:19;29.33;;;13.23;;
18320;SDS011;54904;54.350;18.664;2022-12-04T12:58:57;36.60;;;15.47;;
18320;SDS011;54904;54.350;18.664;2022-12-04T13:01:35;32.47;;;14.20;;
18320;SDS011;54904;54.350;18.664;2022-12-04T13:04:13;35.37;;;15.13;;
18320;SDS011;54904;54.350;18.664;2022-12-04T13:06:47;33.07;;;14.00;;
18320;SDS011;54904;54.350;18.664;2022-12-04T13:09:19;32.37;;;14.33;;
18320;SDS011;54904;54.350;18.664;2022-12-04T13:11:51;34.10;;;15.13;;
18320;SDS011;54904;54.350;18.664;2022-12-04T13:14:23;32.13;;;14.43;;
18320;SDS011;54904;54.350;18.664;2022-12-04T13:16:52;29.93;;;14.30;;
18320;SDS011;54904;54.350;18.664;2022-12-04T13:19:24;33.50;;;14.33;;
18320;SDS011;54904;54.350;18.664;2022-12-04T13:21:56;32.23;;;14.13;;
18320;SDS011;54904;54.350;18.664;2022-12-04T13:27:31;28.10;;;12.63;;
18320;SDS011;54904;54.350;18.664;2022-12-04T13:30:12;27.10;;;13.07;;
18320;SDS011;54904;54.350;18.664;2022-12-04T13:32:56;35.97;;;14.80;;
18320;SDS011;54904;54.350;18.664;2022-12-04T13:38:54;34.27;;;14.77;;
18320;SDS011;54904;54.350;18.664;2022-12-04T13:41:54;35.20;;;14.70;;
18320;SDS011;54904;54.350;18.664;2022-12-04T13:44:23;37.83;;;15.33;;
18320;SDS011;54904;54.350;18.664;2022-12-04T13:46:53;34.73;;;15.77;;
18320;SDS011;54904;54.350;18.664;2022-12-04T13:49:26;49.83;;;20.33;;
18320;SDS011;54904;54.350;18.664;2022-12-04T13:51:54;36.23;;;15.50;;
18320;SDS011;54904;54.350;18.664;2022-12-04T13:54:27;44.60;;;17.20;;
18320;SDS011;54904;54.350;18.664;2022-12-04T13:56:57;46.20;;;18.60;;
18320;SDS011;54904;54.350;18.664;2022-12-04T13:59:44;37.73;;;16.70;;
18320;SDS011;54904;54.350;18.664;2022-12-04T14:02:19;34.07;;;14.60;;
18320;SDS011;54904;54.350;18.664;2022-12-04T14:04:55;41.73;;;16.90;;
18320;SDS011;54904;54.350;18.664;2022-12-04T14:07:28;34.87;;;15.07;;
18320;SDS011;54904;54.350;18.664;2022-12-04T14:09:57;38.20;;;16.20;;
18320;SDS011;54904;54.350;18.664;2022-12-04T14:12:30;40.47;;;17.23;;
18320;SDS011;54904;54.350;18.664;2022-12-04T14:15:02;30.50;;;14.47;;
18320;SDS011;54904;54.350;18.664;2022-12-04T14:17:31;38.03;;;16.77;;
18320;SDS011;54904;54.350;18.664;2022-12-04T14:20:02;39.03;;;17.00;;
18320;SDS011;54904;54.350;18.664;2022-12-04T14:22:39;40.33;;;16.10;;
18320;SDS011;54904;54.350;18.664;2022-12-04T14:27:59;35.97;;;15.87;;
18320;SDS011;54904;54.350;18.664;2022-12-04T14:30:39;36.87;;;16.40;;
18320;SDS011;54904;54.350;18.664;2022-12-04T14:33:08;38.83;;;17.13;;
18320;SDS011;54904;54.350;18.664;2022-12-04T14:35:44;29.40;;;14.07;;
18320;SDS011;54904;54.350;18.664;2022-12-04T14:38:20;22.83;;;11.83;;
18320;SDS011;54904;54.350;18.664;2022-12-04T14:40:48;24.17;;;12.03;;
18320;SDS011;54904;54.350;18.664;2022-12-04T14:43:17;32.87;;;14.50;;